createdAt,value
2019-06-20T00:00:29.326Z,23.61
2019-06-20T00:02:59.918Z,23.47
2019-06-20T00:05:30.567Z,23.42
2019-06-20T00:08:01.290Z,23.48
2019-06-20T00:10:31.751Z,23.41
2019-06-20T00:13:02.201Z,23.49
2019-06-20T00:15:32.703Z,23.56
2019-06-20T00:18:03.166Z,23.51
2019-06-20T00:20:33.636Z,23.44
2019-06-20T00:23:04.188Z,23.54
2019-06-20T00:25:34.708Z,23.45
2019-06-20T00:28:05.291Z,23.40
2019-06-20T00:30:35.792Z,23.27
2019-06-20T00:33:06.285Z,23.21
2019-06-20T00:35:36.777Z,23.19
2019-06-20T00:38:07.278Z,23.13
2019-06-20T00:40:37.840Z,23.09
2019-06-20T00:43:17.626Z,23.07
2019-06-20T00:45:40.583Z,23.06
2019-06-20T00:48:11.063Z,23.06
2019-06-20T00:50:41.516Z,23.10
2019-06-20T00:53:12.104Z,23.04
2019-06-20T00:55:42.606Z,23.06
2019-06-20T00:58:13.053Z,22.86
2019-06-20T01:00:43.559Z,22.81
2019-06-20T01:03:14.299Z,22.83
2019-06-20T01:05:44.795Z,22.79
2019-06-20T01:08:15.253Z,22.78
2019-06-20T01:10:45.745Z,22.76
2019-06-20T01:13:32.295Z,22.80
2019-06-20T01:15:48.408Z,22.75
2019-06-20T01:18:18.957Z,22.76
2019-06-20T01:20:49.435Z,22.82
2019-06-20T01:23:19.887Z,22.87
2019-06-20T01:25:50.598Z,22.90
2019-06-20T01:28:21.166Z,23.00
2019-06-20T01:30:51.621Z,23.05
2019-06-20T01:33:22.193Z,23.07
2019-06-20T01:35:52.674Z,23.04
2019-06-20T01:38:23.292Z,23.04
2019-06-20T01:40:53.782Z,22.88
2019-06-20T01:43:24.268Z,22.84
2019-06-20T01:45:54.726Z,22.95
2019-06-20T01:48:25.216Z,22.95
2019-06-20T01:50:55.699Z,22.90
2019-06-20T01:53:26.159Z,22.67
2019-06-20T01:55:57.201Z,22.81
2019-06-20T01:58:27.724Z,22.85
2019-06-20T02:00:58.176Z,22.80
2019-06-20T02:03:28.865Z,22.75
2019-06-20T02:05:59.376Z,22.71
2019-06-20T02:08:29.826Z,22.70
2019-06-20T02:11:00.319Z,22.53
2019-06-20T02:13:30.788Z,22.59
2019-06-20T02:16:01.292Z,22.70
2019-06-20T02:18:31.880Z,22.74
2019-06-20T02:21:02.650Z,22.75
2019-06-20T02:23:33.148Z,22.77
2019-06-20T02:26:03.624Z,22.87
2019-06-20T02:28:34.102Z,22.91
2019-06-20T02:31:04.585Z,22.91
2019-06-20T02:33:35.036Z,22.98
2019-06-20T02:36:05.629Z,22.94
2019-06-20T02:38:36.067Z,22.80
2019-06-20T02:41:06.734Z,22.91
2019-06-20T02:43:37.187Z,22.74
2019-06-20T02:46:07.677Z,22.74
2019-06-20T02:48:38.178Z,22.72
2019-06-20T02:51:08.668Z,22.63
2019-06-20T02:53:39.526Z,22.48
2019-06-20T02:56:10.015Z,22.45
2019-06-20T02:58:40.505Z,22.53
2019-06-20T03:01:11.065Z,22.61
2019-06-20T03:03:41.556Z,22.49
2019-06-20T03:06:12.040Z,22.51
2019-06-20T03:08:42.676Z,22.23
2019-06-20T03:11:13.228Z,22.20
2019-06-20T03:13:43.673Z,22.08
2019-06-20T03:16:14.179Z,22.18
2019-06-20T03:18:44.637Z,22.04
2019-06-20T03:21:15.129Z,22.23
2019-06-20T03:23:45.585Z,22.25
2019-06-20T03:26:16.114Z,22.36
2019-06-20T03:28:46.578Z,21.63
2019-06-20T03:31:17.102Z,22.36
2019-06-20T03:33:47.571Z,22.42
2019-06-20T03:36:18.067Z,22.48
2019-06-20T03:38:48.511Z,22.65
2019-06-20T03:41:19.003Z,22.74
2019-06-20T03:43:49.463Z,22.72
2019-06-20T03:46:19.982Z,22.87
2019-06-20T03:48:50.450Z,22.71
2019-06-20T03:51:20.940Z,22.88
2019-06-20T03:53:51.396Z,22.85
2019-06-20T03:56:21.892Z,22.94
2019-06-20T03:58:52.376Z,23.26
2019-06-20T04:01:22.850Z,23.24
2019-06-20T04:03:53.349Z,23.33
2019-06-20T04:06:23.811Z,23.50
2019-06-20T04:08:54.306Z,23.70
2019-06-20T04:11:24.759Z,23.95
2019-06-20T04:13:55.263Z,24.05
2019-06-20T04:16:25.721Z,24.28
2019-06-20T04:18:56.205Z,24.70
2019-06-20T04:21:26.660Z,24.70
2019-06-20T04:23:57.169Z,25.05
2019-06-20T04:26:27.696Z,24.93
2019-06-20T04:28:58.242Z,24.93
2019-06-20T04:31:28.712Z,25.31
2019-06-20T04:33:59.231Z,25.40
2019-06-20T04:36:29.690Z,25.52
2019-06-20T04:39:00.154Z,25.38
2019-06-20T04:41:30.662Z,25.44
2019-06-20T04:44:01.265Z,25.52
2019-06-20T04:46:37.814Z,25.85
2019-06-20T04:49:08.337Z,25.65
2019-06-20T04:51:38.946Z,26.15
2019-06-20T04:54:09.508Z,25.96
2019-06-20T04:56:40.124Z,26.20
2019-06-20T04:59:10.636Z,26.47
2019-06-20T05:01:41.165Z,26.57
2019-06-20T05:04:13.686Z,26.91
2019-06-20T05:06:47.374Z,26.47
2019-06-20T05:09:17.891Z,27.00
2019-06-20T05:11:48.585Z,27.02
2019-06-20T05:14:19.566Z,26.99
2019-06-20T05:16:50.022Z,26.92
2019-06-20T05:19:20.624Z,26.95
2019-06-20T05:21:51.182Z,26.85
2019-06-20T05:24:21.660Z,27.12
2019-06-20T05:26:54.126Z,27.04
2019-06-20T05:29:24.719Z,27.41
2019-06-20T05:31:55.850Z,27.37
2019-06-20T05:34:26.309Z,27.43
2019-06-20T05:36:56.834Z,27.52
2019-06-20T05:39:28.679Z,27.33
2019-06-20T05:41:59.222Z,27.38
2019-06-20T05:44:29.704Z,27.45
2019-06-20T05:47:11.834Z,27.92
2019-06-20T05:49:32.502Z,27.62
2019-06-20T05:52:03.227Z,27.74
2019-06-20T05:54:33.744Z,27.52
2019-06-20T05:57:04.745Z,27.81
2019-06-20T05:59:35.356Z,27.88
2019-06-20T06:02:06.152Z,28.14
2019-06-20T06:04:36.783Z,28.23
2019-06-20T06:07:13.939Z,28.59
2019-06-20T06:09:42.399Z,28.57
2019-06-20T06:12:12.888Z,28.28
2019-06-20T06:14:43.404Z,28.42
2019-06-20T06:17:14.004Z,28.46
2019-06-20T06:19:44.478Z,28.38
2019-06-20T06:22:14.998Z,28.45
2019-06-20T06:24:45.836Z,28.68
2019-06-20T06:27:16.909Z,28.59
2019-06-20T06:29:49.542Z,28.82
2019-06-20T06:32:20.316Z,29.02
2019-06-20T06:34:50.848Z,29.14
2019-06-20T06:37:22.668Z,29.23
2019-06-20T06:39:58.423Z,29.55
2019-06-20T06:42:29.386Z,29.52
2019-06-20T06:44:59.950Z,29.73
2019-06-20T06:47:30.484Z,29.82
2019-06-20T06:50:01.000Z,29.91
2019-06-20T06:52:31.691Z,29.97
2019-06-20T06:55:02.618Z,30.03
2019-06-20T06:57:33.430Z,30.13
2019-06-20T07:00:06.452Z,30.23
2019-06-20T07:02:37.036Z,30.03
2019-06-20T07:05:07.975Z,30.71
2019-06-20T07:07:38.629Z,30.54
2019-06-20T07:10:10.980Z,30.19
2019-06-20T07:12:41.551Z,30.68
2019-06-20T07:15:13.697Z,30.27
2019-06-20T07:17:44.589Z,30.61
2019-06-20T07:20:15.595Z,30.87
2019-06-20T07:22:47.051Z,30.73
2019-06-20T07:25:18.614Z,30.81
2019-06-20T07:27:49.183Z,30.78
2019-06-20T07:30:20.425Z,30.90
2019-06-20T07:32:50.994Z,31.12
2019-06-20T07:35:22.051Z,31.20
2019-06-20T07:37:55.674Z,31.10
2019-06-20T07:40:26.697Z,31.40
2019-06-20T07:42:57.154Z,31.24
2019-06-20T07:45:28.385Z,31.62
2019-06-20T07:47:59.001Z,31.85
2019-06-20T07:50:29.730Z,31.93
2019-06-20T07:53:02.508Z,31.62
2019-06-20T07:55:34.506Z,31.62
2019-06-20T07:58:05.327Z,32.01
2019-06-20T08:00:36.505Z,31.87
2019-06-20T08:03:07.264Z,32.00
2019-06-20T08:05:37.952Z,32.24
2019-06-20T08:08:08.505Z,32.64
2019-06-20T08:10:39.311Z,32.50
2019-06-20T08:13:10.489Z,32.53
2019-06-20T08:15:41.262Z,32.57
2019-06-20T08:18:11.799Z,32.68
2019-06-20T08:20:44.217Z,32.48
2019-06-20T08:23:14.932Z,32.54
2019-06-20T08:25:45.827Z,32.82
2019-06-20T08:28:17.423Z,32.62
2019-06-20T08:30:48.050Z,32.24
2019-06-20T08:33:19.152Z,32.32
2019-06-20T08:35:49.727Z,32.59
2019-06-20T08:38:21.065Z,32.66
2019-06-20T08:40:51.587Z,32.47
2019-06-20T08:43:22.402Z,32.51
2019-06-20T08:45:53.053Z,32.46
2019-06-20T08:48:23.622Z,32.55
2019-06-20T08:50:54.240Z,32.72
2019-06-20T08:53:24.779Z,33.08
2019-06-20T08:55:56.300Z,32.74
2019-06-20T08:58:28.108Z,33.54
2019-06-20T09:01:01.302Z,33.38
2019-06-20T09:03:31.308Z,33.14
2019-06-20T09:08:32.398Z,33.70
2019-06-20T09:11:04.017Z,33.42
2019-06-20T09:13:34.809Z,33.09
2019-06-20T09:16:05.533Z,33.23
2019-06-20T09:18:36.098Z,33.40
2019-06-20T09:21:06.961Z,33.52
2019-06-20T09:23:37.565Z,33.59
2019-06-20T09:26:11.197Z,33.62
2019-06-20T09:28:41.713Z,33.84
2019-06-20T09:31:12.448Z,33.46
2019-06-20T09:33:43.101Z,33.82
2019-06-20T09:36:13.710Z,33.34
2019-06-20T09:38:44.307Z,33.54
2019-06-20T09:41:15.008Z,33.72
2019-06-20T09:43:45.497Z,33.92
2019-06-20T09:46:16.052Z,33.66
2019-06-20T09:48:46.604Z,33.88
2019-06-20T09:51:17.152Z,33.89
2019-06-20T09:53:48.505Z,33.80
2019-06-20T09:56:19.572Z,33.93
2019-06-20T09:58:51.169Z,34.06
2019-06-20T10:01:21.862Z,33.34
2019-06-20T10:03:52.502Z,33.74
2019-06-20T10:06:23.492Z,33.89
2019-06-20T10:08:54.346Z,34.18
2019-06-20T10:11:24.954Z,34.28
2019-06-20T10:13:56.076Z,34.25
2019-06-20T10:16:26.702Z,34.25
2019-06-20T10:18:58.626Z,34.43
2019-06-20T10:21:29.113Z,34.41
2019-06-20T10:24:00.276Z,34.44
2019-06-20T10:26:30.801Z,34.44
2019-06-20T10:29:01.646Z,33.87
2019-06-20T10:31:32.213Z,34.03
2019-06-20T10:34:02.803Z,34.05
2019-06-20T10:36:33.410Z,33.72
2019-06-20T10:39:05.597Z,33.84
2019-06-20T10:41:36.083Z,33.65
2019-06-20T10:44:06.737Z,34.00
2019-06-20T10:46:37.268Z,33.74
2019-06-20T10:49:07.865Z,33.87
2019-06-20T10:51:45.999Z,33.76
2019-06-20T10:54:16.576Z,33.65
2019-06-20T10:56:47.266Z,34.10
2019-06-20T10:59:17.711Z,34.29
2019-06-20T11:01:48.614Z,34.35
2019-06-20T11:04:19.253Z,34.45
2019-06-20T11:06:49.852Z,34.27
2019-06-20T11:09:20.453Z,34.37
2019-06-20T11:11:51.100Z,34.34
2019-06-20T11:14:22.156Z,34.46
2019-06-20T11:16:52.615Z,34.36
2019-06-20T11:19:23.171Z,33.96
2019-06-20T11:21:53.670Z,34.63
2019-06-20T11:24:24.527Z,34.50
2019-06-20T11:26:54.999Z,34.02
2019-06-20T11:29:25.612Z,34.20
2019-06-20T11:31:56.275Z,34.51
2019-06-20T11:34:26.777Z,34.42
2019-06-20T11:36:57.272Z,34.47
2019-06-20T11:39:27.771Z,34.41
2019-06-20T11:41:58.278Z,34.09
2019-06-20T11:44:28.752Z,34.22
2019-06-20T11:47:00.216Z,34.57
2019-06-20T11:49:30.736Z,34.47
2019-06-20T11:52:01.307Z,34.54
2019-06-20T11:54:32.879Z,34.41
2019-06-20T11:57:04.126Z,34.28
2019-06-20T11:59:34.711Z,34.21
2019-06-20T12:02:05.461Z,34.30
2019-06-20T12:04:36.009Z,34.16
2019-06-20T12:07:06.525Z,34.44
2019-06-20T12:09:37.955Z,34.29
2019-06-20T12:12:09.292Z,34.45
2019-06-20T12:14:41.380Z,34.00
2019-06-20T12:17:11.984Z,34.19
2019-06-20T12:19:42.525Z,34.43
2019-06-20T12:22:13.095Z,34.51
2019-06-20T12:24:44.510Z,34.55
2019-06-20T12:27:15.013Z,34.36
2019-06-20T12:29:46.489Z,34.32
2019-06-20T12:32:19.347Z,34.08
2019-06-20T12:34:50.061Z,34.01
2019-06-20T12:37:20.627Z,34.08
2019-06-20T12:39:51.183Z,34.26
2019-06-20T12:42:21.684Z,33.63
2019-06-20T12:44:52.207Z,34.18
2019-06-20T12:47:22.668Z,34.12
2019-06-20T12:49:53.275Z,34.33
2019-06-20T12:52:28.407Z,34.39
2019-06-20T12:54:59.014Z,34.31
2019-06-20T12:57:29.552Z,34.46
2019-06-20T13:00:00.212Z,34.61
2019-06-20T13:02:31.123Z,34.45
2019-06-20T13:05:01.822Z,34.50
2019-06-20T13:07:32.469Z,34.41
2019-06-20T13:10:02.979Z,34.28
2019-06-20T13:12:33.511Z,34.47
2019-06-20T13:15:04.264Z,34.74
2019-06-20T13:17:34.838Z,34.69
2019-06-20T13:20:05.841Z,34.63
2019-06-20T13:22:37.845Z,34.64
2019-06-20T13:25:09.590Z,34.58
2019-06-20T13:27:41.060Z,34.57
2019-06-20T13:30:14.662Z,34.48
2019-06-20T13:32:45.813Z,34.69
2019-06-20T13:35:17.893Z,34.91
2019-06-20T13:37:49.850Z,35.01
2019-06-20T13:40:20.816Z,35.01
2019-06-20T13:42:54.465Z,35.10
2019-06-20T13:45:25.940Z,35.14
2019-06-20T13:47:56.956Z,35.10
2019-06-20T13:50:28.256Z,35.03
2019-06-20T13:52:58.850Z,35.05
2019-06-20T13:55:29.505Z,34.93
2019-06-20T13:58:00.054Z,34.96
2019-06-20T14:00:30.970Z,35.03
2019-06-20T14:03:01.486Z,35.09
2019-06-20T14:05:32.165Z,35.21
2019-06-20T14:08:03.177Z,34.68
2019-06-20T14:10:33.668Z,35.30
2019-06-20T14:13:18.248Z,35.10
2019-06-20T14:15:36.639Z,34.74
2019-06-20T14:18:07.475Z,34.73
2019-06-20T14:20:37.947Z,34.53
2019-06-20T14:23:08.519Z,34.50
2019-06-20T14:25:39.113Z,34.36
2019-06-20T14:28:09.688Z,34.39
2019-06-20T14:30:40.220Z,34.41
2019-06-20T14:33:10.909Z,34.53
2019-06-20T14:35:43.481Z,34.48
2019-06-20T14:38:13.730Z,34.66
2019-06-20T14:40:45.326Z,34.65
2019-06-20T14:43:15.896Z,34.75
2019-06-20T14:45:46.874Z,34.87
2019-06-20T14:48:17.403Z,34.58
2019-06-20T14:50:49.504Z,34.51
2019-06-20T14:53:20.077Z,34.62
2019-06-20T14:55:51.725Z,34.42
2019-06-20T14:58:22.249Z,34.37
2019-06-20T15:00:54.109Z,34.41
2019-06-20T15:03:24.692Z,34.42
2019-06-20T15:05:55.155Z,34.40
2019-06-20T15:08:25.716Z,34.43
2019-06-20T15:10:56.172Z,34.46
2019-06-20T15:13:26.628Z,34.50
2019-06-20T15:15:57.247Z,34.51
2019-06-20T15:18:28.000Z,34.44
2019-06-20T15:20:59.499Z,34.32
2019-06-20T15:23:30.060Z,34.20
2019-06-20T15:26:00.572Z,33.94
2019-06-20T15:28:31.047Z,33.96
2019-06-20T15:31:01.502Z,33.61
2019-06-20T15:33:31.984Z,33.23
2019-06-20T15:36:02.482Z,32.34
2019-06-20T15:38:33.095Z,31.85
2019-06-20T15:41:03.625Z,31.58
2019-06-20T15:43:34.085Z,31.30
2019-06-20T15:46:04.863Z,31.11
2019-06-20T15:48:35.541Z,30.91
2019-06-20T15:51:06.228Z,30.96
2019-06-20T15:53:36.766Z,30.40
2019-06-20T15:56:07.225Z,30.28
2019-06-20T15:58:37.681Z,29.92
2019-06-20T16:01:08.197Z,29.85
2019-06-20T16:03:38.762Z,29.86
2019-06-20T16:06:09.361Z,29.57
2019-06-20T16:08:39.807Z,29.33
2019-06-20T16:11:10.324Z,29.27
2019-06-20T16:13:40.900Z,29.21
2019-06-20T16:16:11.355Z,29.13
2019-06-20T16:18:41.838Z,28.85
2019-06-20T16:21:12.289Z,28.90
2019-06-20T16:23:42.804Z,28.76
2019-06-20T16:26:13.246Z,28.60
2019-06-20T16:28:43.920Z,28.40
2019-06-20T16:31:26.256Z,28.45
2019-06-20T16:33:46.610Z,28.47
2019-06-20T16:36:17.108Z,28.50
2019-06-20T16:38:47.602Z,28.37
2019-06-20T16:41:18.191Z,28.46
2019-06-20T16:43:48.789Z,28.28
2019-06-20T16:46:19.262Z,28.21
2019-06-20T16:48:49.750Z,28.02
2019-06-20T16:51:20.539Z,28.02
2019-06-20T16:53:51.049Z,28.08
2019-06-20T16:56:21.594Z,27.93
2019-06-20T16:58:52.048Z,27.90
2019-06-20T17:01:22.547Z,27.73
2019-06-20T17:03:54.972Z,27.81
2019-06-20T17:06:25.432Z,27.76
2019-06-20T17:08:56.284Z,27.79
2019-06-20T17:11:26.751Z,27.73
2019-06-20T17:13:57.245Z,27.80
2019-06-20T17:16:27.741Z,27.91
2019-06-20T17:18:58.213Z,27.90
2019-06-20T17:21:28.721Z,27.84
2019-06-20T17:23:59.432Z,27.83
2019-06-20T17:26:30.314Z,27.86
2019-06-20T17:29:00.896Z,27.89
2019-06-20T17:31:31.485Z,27.73
2019-06-20T17:34:02.013Z,27.72
2019-06-20T17:36:32.467Z,27.79
2019-06-20T17:39:02.955Z,27.64
2019-06-20T17:41:33.577Z,27.54
2019-06-20T17:44:04.076Z,27.47
2019-06-20T17:46:34.584Z,27.58
2019-06-20T17:49:05.146Z,27.48
2019-06-20T17:51:35.764Z,27.40
2019-06-20T17:54:06.467Z,27.25
2019-06-20T17:56:37.013Z,27.33
2019-06-20T17:59:07.466Z,27.11
2019-06-20T18:01:38.112Z,26.98
2019-06-20T18:04:13.806Z,26.86
2019-06-20T18:06:40.873Z,26.95
2019-06-20T18:09:11.783Z,26.71
2019-06-20T18:11:42.240Z,26.69
2019-06-20T18:14:12.718Z,26.60
2019-06-20T18:16:43.184Z,26.49
2019-06-20T18:19:13.762Z,26.47
2019-06-20T18:21:44.234Z,26.45
2019-06-20T18:24:14.769Z,26.39
2019-06-20T18:26:45.257Z,26.40
2019-06-20T18:29:15.760Z,26.41
2019-06-20T18:31:46.268Z,26.52
2019-06-20T18:34:29.679Z,26.52
2019-06-20T18:36:50.763Z,26.48
2019-06-20T18:39:21.261Z,26.34
2019-06-20T18:41:51.935Z,26.40
2019-06-20T18:44:22.501Z,26.41
2019-06-20T18:46:52.969Z,26.51
2019-06-20T18:49:23.524Z,26.46
2019-06-20T18:51:54.055Z,26.44
2019-06-20T18:54:24.616Z,25.78
2019-06-20T18:56:55.225Z,26.30
2019-06-20T18:59:25.856Z,26.45
2019-06-20T19:01:56.312Z,26.25
2019-06-20T19:04:26.758Z,26.29
2019-06-20T19:06:57.286Z,26.12
2019-06-20T19:09:27.751Z,26.13
2019-06-20T19:11:58.232Z,26.16
2019-06-20T19:14:28.790Z,26.04
2019-06-20T19:16:59.292Z,26.16
2019-06-20T19:19:29.826Z,26.01
2019-06-20T19:22:00.283Z,26.04
2019-06-20T19:24:30.749Z,26.10
2019-06-20T19:27:01.270Z,25.89
2019-06-20T19:29:31.798Z,25.86
2019-06-20T19:32:02.264Z,25.83
2019-06-20T19:34:32.757Z,25.99
2019-06-20T19:37:03.289Z,26.04
2019-06-20T19:39:33.784Z,25.91
2019-06-20T19:42:04.384Z,25.81
2019-06-20T19:44:34.822Z,25.72
2019-06-20T19:47:05.421Z,25.64
2019-06-20T19:49:35.858Z,25.53
2019-06-20T19:52:06.304Z,25.64
2019-06-20T19:54:36.851Z,25.50
2019-06-20T19:57:07.339Z,25.45
2019-06-20T19:59:37.834Z,25.48
2019-06-20T20:02:08.413Z,25.60
2019-06-20T20:04:39.075Z,25.54
2019-06-20T20:07:09.611Z,25.47
2019-06-20T20:09:40.316Z,25.42
2019-06-20T20:12:10.777Z,25.45
2019-06-20T20:14:41.269Z,25.44
2019-06-20T20:17:11.720Z,25.48
2019-06-20T20:19:42.204Z,25.34
2019-06-20T20:22:12.669Z,25.44
2019-06-20T20:24:43.134Z,25.41
2019-06-20T20:27:13.733Z,25.44
2019-06-20T20:29:44.215Z,25.40
2019-06-20T20:32:14.671Z,25.40
2019-06-20T20:34:45.118Z,25.37
2019-06-20T20:37:15.629Z,25.41
2019-06-20T20:39:46.065Z,25.18
2019-06-20T20:42:17.875Z,25.33
2019-06-20T20:44:48.403Z,25.25
2019-06-20T20:47:18.898Z,25.10
2019-06-20T20:49:49.348Z,24.97
2019-06-20T20:52:19.831Z,24.90
2019-06-20T20:54:50.339Z,24.99
2019-06-20T20:57:20.784Z,25.00
2019-06-20T20:59:51.247Z,24.93
2019-06-20T21:02:21.766Z,24.98
2019-06-20T21:04:52.283Z,24.96
2019-06-20T21:07:22.764Z,24.95
2019-06-20T21:09:53.282Z,25.07
2019-06-20T21:12:23.767Z,25.22
2019-06-20T21:14:54.268Z,25.21
2019-06-20T21:17:24.733Z,25.04
2019-06-20T21:19:55.236Z,24.93
2019-06-20T21:22:27.094Z,24.87
2019-06-20T21:24:57.536Z,24.65
2019-06-20T21:27:28.000Z,24.55
2019-06-20T21:29:58.479Z,24.50
2019-06-20T21:32:28.936Z,24.53
2019-06-20T21:34:59.437Z,24.45
2019-06-20T21:37:29.920Z,24.57
2019-06-20T21:40:00.355Z,24.42
2019-06-20T21:42:30.936Z,24.53
2019-06-20T21:45:01.423Z,24.50
2019-06-20T21:47:31.957Z,24.52
2019-06-20T21:50:02.606Z,24.54
2019-06-20T21:52:33.092Z,24.64
2019-06-20T21:55:03.555Z,24.55
2019-06-20T21:57:34.049Z,24.40
2019-06-20T22:00:06.132Z,24.23
2019-06-20T22:02:36.960Z,24.45
2019-06-20T22:05:08.188Z,24.52
2019-06-20T22:07:38.717Z,24.45
2019-06-20T22:10:10.084Z,24.45
2019-06-20T22:12:40.576Z,24.48
2019-06-20T22:15:11.421Z,24.28
2019-06-20T22:17:41.874Z,24.42
2019-06-20T22:20:13.555Z,24.40
2019-06-20T22:22:44.010Z,24.24
2019-06-20T22:25:14.921Z,24.22
2019-06-20T22:27:45.369Z,24.05
2019-06-20T22:30:16.544Z,24.16
2019-06-20T22:32:47.048Z,24.17
2019-06-20T22:35:17.625Z,23.40
2019-06-20T22:37:48.123Z,24.25
2019-06-20T22:40:18.674Z,24.09
2019-06-20T22:42:49.198Z,24.21
2019-06-20T22:45:19.729Z,24.14
2019-06-20T22:47:50.204Z,24.17
2019-06-20T22:50:20.896Z,24.19
2019-06-20T22:52:51.343Z,24.17
2019-06-20T22:55:21.948Z,24.18
2019-06-20T22:57:52.414Z,24.21
2019-06-20T23:00:23.275Z,24.00
2019-06-20T23:02:53.772Z,24.08
2019-06-20T23:05:24.247Z,24.12
2019-06-20T23:07:54.773Z,24.11
2019-06-20T23:10:25.238Z,24.02
2019-06-20T23:12:55.732Z,24.00
2019-06-20T23:15:26.288Z,24.10
2019-06-20T23:17:56.775Z,24.04
2019-06-20T23:20:27.320Z,24.06
2019-06-20T23:22:57.877Z,23.89
2019-06-20T23:25:28.466Z,23.89
2019-06-20T23:27:59.038Z,23.76
2019-06-20T23:30:29.823Z,23.76
2019-06-20T23:33:00.275Z,23.76
2019-06-20T23:35:30.761Z,23.70
2019-06-20T23:38:01.238Z,23.75
2019-06-20T23:40:31.701Z,23.81
2019-06-20T23:43:02.186Z,23.72
2019-06-20T23:45:32.837Z,23.74
2019-06-20T23:48:03.503Z,23.85
2019-06-20T23:50:34.007Z,23.92
2019-06-20T23:53:10.112Z,23.87
2019-06-20T23:55:40.608Z,23.93
2019-06-20T23:58:11.173Z,23.85
